sensor_id;sensor_type;location;lat;lon;timestamp;pressure;altitude;pressure_sealevel;temperature;humidity
5812;BME280;2932;52.400;9.558;2023-02-16T00:01:44;101742.00;;;9.86;61.16
5812;BME280;2932;52.400;9.558;2023-02-16T00:04:19;101741.69;;;10.32;60.03
5812;BME280;2932;52.400;9.558;2023-02-16T00:06:45;101740.63;;;10.19;59.81
5812;BME280;2932;52.400;9.558;2023-02-16T00:09:11;101740.31;;;10.21;60.05
5812;BME280;2932;52.400;9.558;2023-02-16T00:11:37;101734.91;;;10.38;60.01
5812;BME280;2932;52.400;9.558;2023-02-16T00:14:22;101727.78;;;10.54;59.15
5812;BME280;2932;52.400;9.558;2023-02-16T00:16:51;101723.03;;;10.46;58.57
5812;BME280;2932;52.400;9.558;2023-02-16T00:19:22;101726.03;;;10.27;59.60
5812;BME280;2932;52.400;9.558;2023-02-16T00:21:49;101728.31;;;10.25;59.48
5812;BME280;2932;52.400;9.558;2023-02-16T00:24:15;101724.88;;;10.06;60.00
5812;BME280;2932;52.400;9.558;2023-02-16T00:26:41;101729.50;;;10.33;60.06
5812;BME280;2932;52.400;9.558;2023-02-16T00:29:19;101732.28;;;10.42;58.94
5812;BME280;2932;52.400;9.558;2023-02-16T00:31:44;101726.75;;;10.73;58.04
5812;BME280;2932;52.400;9.558;2023-02-16T00:34:36;101723.03;;;10.46;58.62
5812;BME280;2932;52.400;9.558;2023-02-16T00:37:04;101721.06;;;10.38;58.51
5812;BME280;2932;52.400;9.558;2023-02-16T00:39:30;101716.94;;;10.27;58.52
5812;BME280;2932;52.400;9.558;2023-02-16T00:41:59;101717.56;;;10.24;58.78
5812;BME280;2932;52.400;9.558;2023-02-16T00:44:41;101719.19;;;10.25;58.52
5812;BME280;2932;52.400;9.558;2023-02-16T00:47:19;101722.31;;;10.10;58.74
5812;BME280;2932;52.400;9.558;2023-02-16T00:49:47;101726.28;;;10.17;58.92
5812;BME280;2932;52.400;9.558;2023-02-16T00:52:23;101724.75;;;10.11;58.99
5812;BME280;2932;52.400;9.558;2023-02-16T00:54:51;101710.84;;;9.72;60.21
5812;BME280;2932;52.400;9.558;2023-02-16T00:57:17;101714.22;;;9.46;61.82
5812;BME280;2932;52.400;9.558;2023-02-16T00:59:44;101706.81;;;9.55;62.07
5812;BME280;2932;52.400;9.558;2023-02-16T01:02:12;101706.06;;;9.63;61.98
5812;BME280;2932;52.400;9.558;2023-02-16T01:04:37;101708.97;;;9.81;61.37
5812;BME280;2932;52.400;9.558;2023-02-16T01:07:12;101711.88;;;10.07;60.87
5812;BME280;2932;52.400;9.558;2023-02-16T01:09:57;101704.97;;;10.18;60.45
5812;BME280;2932;52.400;9.558;2023-02-16T01:12:41;101711.75;;;10.12;60.49
5812;BME280;2932;52.400;9.558;2023-02-16T01:15:11;101711.25;;;10.32;60.06
5812;BME280;2932;52.400;9.558;2023-02-16T01:17:38;101704.91;;;10.31;59.91
5812;BME280;2932;52.400;9.558;2023-02-16T01:20:13;101709.50;;;10.45;59.99
5812;BME280;2932;52.400;9.558;2023-02-16T01:22:39;101706.94;;;10.48;59.59
5812;BME280;2932;52.400;9.558;2023-02-16T01:25:04;101700.56;;;10.17;60.10
5812;BME280;2932;52.400;9.558;2023-02-16T01:27:30;101715.28;;;10.26;60.45
5812;BME280;2932;52.400;9.558;2023-02-16T01:29:55;101711.25;;;10.10;60.54
5812;BME280;2932;52.400;9.558;2023-02-16T01:32:21;101710.91;;;10.25;60.31
5812;BME280;2932;52.400;9.558;2023-02-16T01:34:46;101699.84;;;10.25;60.11
5812;BME280;2932;52.400;9.558;2023-02-16T01:37:14;101699.88;;;10.33;59.59
5812;BME280;2932;52.400;9.558;2023-02-16T01:39:40;101707.88;;;10.44;60.39
5812;BME280;2932;52.400;9.558;2023-02-16T01:42:16;101691.91;;;10.41;59.52
5812;BME280;2932;52.400;9.558;2023-02-16T01:44:50;101703.81;;;10.41;59.59
5812;BME280;2932;52.400;9.558;2023-02-16T01:49:47;101700.06;;;10.37;58.73
5812;BME280;2932;52.400;9.558;2023-02-16T01:52:25;101692.41;;;10.34;58.47
5812;BME280;2932;52.400;9.558;2023-02-16T01:55:05;101685.78;;;9.68;59.74
5812;BME280;2932;52.400;9.558;2023-02-16T01:58:36;101683.09;;;9.54;61.06
5812;BME280;2932;52.400;9.558;2023-02-16T02:03:19;101681.66;;;9.57;61.99
5812;BME280;2932;52.400;9.558;2023-02-16T02:06:09;101682.69;;;9.92;61.28
5812;BME280;2932;52.400;9.558;2023-02-16T02:11:12;101680.53;;;10.11;60.80
5812;BME280;2932;52.400;9.558;2023-02-16T02:16:09;101681.13;;;9.99;60.93
5812;BME280;2932;52.400;9.558;2023-02-16T02:18:35;101672.97;;;9.72;61.73
5812;BME280;2932;52.400;9.558;2023-02-16T02:25:13;101677.13;;;9.83;62.04
5812;BME280;2932;52.400;9.558;2023-02-16T02:30:44;101668.50;;;10.16;59.35
5812;BME280;2932;52.400;9.558;2023-02-16T02:38:36;101666.13;;;9.92;59.18
5812;BME280;2932;52.400;9.558;2023-02-16T02:41:17;101655.19;;;9.64;59.71
5812;BME280;2932;52.400;9.558;2023-02-16T02:43:59;101662.09;;;9.76;59.37
5812;BME280;2932;52.400;9.558;2023-02-16T02:46:33;101667.44;;;9.72;59.32
5812;BME280;2932;52.400;9.558;2023-02-16T02:49:00;101668.50;;;9.85;58.85
5812;BME280;2932;52.400;9.558;2023-02-16T02:51:25;101673.34;;;9.79;58.41
5812;BME280;2932;52.400;9.558;2023-02-16T02:57:16;101669.00;;;9.64;58.84
5812;BME280;2932;52.400;9.558;2023-02-16T03:02:49;101673.72;;;9.42;59.26
5812;BME280;2932;52.400;9.558;2023-02-16T03:05:17;101669.31;;;9.18;60.32
5812;BME280;2932;52.400;9.558;2023-02-16T03:07:45;101664.63;;;9.05;61.29
5812;BME280;2932;52.400;9.558;2023-02-16T03:10:20;101658.72;;;8.98;62.10
5812;BME280;2932;52.400;9.558;2023-02-16T03:13:07;101662.69;;;9.06;62.00
5812;BME280;2932;52.400;9.558;2023-02-16T03:15:35;101669.78;;;9.20;60.98
5812;BME280;2932;52.400;9.558;2023-02-16T03:18:02;101672.88;;;9.19;60.63
5812;BME280;2932;52.400;9.558;2023-02-16T03:20:48;101667.66;;;9.17;60.71
5812;BME280;2932;52.400;9.558;2023-02-16T03:23:32;101661.06;;;9.27;60.18
5812;BME280;2932;52.400;9.558;2023-02-16T03:26:17;101667.91;;;8.93;61.54
5812;BME280;2932;52.400;9.558;2023-02-16T03:29:04;101661.69;;;8.88;62.81
5812;BME280;2932;52.400;9.558;2023-02-16T03:31:50;101662.19;;;8.90;63.69
5812;BME280;2932;52.400;9.558;2023-02-16T03:34:19;101661.94;;;8.64;64.69
5812;BME280;2932;52.400;9.558;2023-02-16T03:36:49;101660.41;;;8.58;65.12
5812;BME280;2932;52.400;9.558;2023-02-16T03:39:15;101663.34;;;8.61;65.10
5812;BME280;2932;52.400;9.558;2023-02-16T03:41:45;101666.31;;;8.51;65.34
5812;BME280;2932;52.400;9.558;2023-02-16T03:44:11;101670.00;;;8.60;65.48
5812;BME280;2932;52.400;9.558;2023-02-16T03:46:37;101661.22;;;8.58;65.90
5812;BME280;2932;52.400;9.558;2023-02-16T03:49:02;101661.94;;;8.64;65.62
5812;BME280;2932;52.400;9.558;2023-02-16T03:51:27;101657.75;;;8.66;65.83
5812;BME280;2932;52.400;9.558;2023-02-16T03:53:53;101654.78;;;8.63;65.77
5812;BME280;2932;52.400;9.558;2023-02-16T03:56:18;101661.06;;;8.91;65.06
5812;BME280;2932;52.400;9.558;2023-02-16T03:58:43;101653.41;;;8.88;65.28
5812;BME280;2932;52.400;9.558;2023-02-16T04:01:09;101647.47;;;8.94;65.05
5812;BME280;2932;52.400;9.558;2023-02-16T04:03:34;101659.13;;;8.91;65.19
5812;BME280;2932;52.400;9.558;2023-02-16T04:06:00;101651.19;;;8.76;65.65
5812;BME280;2932;52.400;9.558;2023-02-16T04:08:28;101651.91;;;8.68;65.80
5812;BME280;2932;52.400;9.558;2023-02-16T04:10:54;101646.28;;;8.73;65.90
5812;BME280;2932;52.400;9.558;2023-02-16T04:13:21;101642.81;;;8.67;65.25
5812;BME280;2932;52.400;9.558;2023-02-16T04:15:47;101648.50;;;8.85;65.53
5812;BME280;2932;52.400;9.558;2023-02-16T04:18:13;101644.34;;;8.60;65.53
5812;BME280;2932;52.400;9.558;2023-02-16T04:20:38;101646.41;;;8.68;65.72
5812;BME280;2932;52.400;9.558;2023-02-16T04:23:04;101643.59;;;8.82;65.24
5812;BME280;2932;52.400;9.558;2023-02-16T04:25:30;101638.06;;;8.95;65.20
5812;BME280;2932;52.400;9.558;2023-02-16T04:27:55;101636.88;;;8.74;65.20
5812;BME280;2932;52.400;9.558;2023-02-16T04:30:27;101637.25;;;8.81;65.41
5812;BME280;2932;52.400;9.558;2023-02-16T04:32:54;101626.16;;;8.59;65.76
5812;BME280;2932;52.400;9.558;2023-02-16T04:35:20;101632.19;;;8.75;65.18
5812;BME280;2932;52.400;9.558;2023-02-16T04:37:45;101630.91;;;8.94;64.88
5812;BME280;2932;52.400;9.558;2023-02-16T04:40:12;101630.81;;;9.22;64.35
5812;BME280;2932;52.400;9.558;2023-02-16T04:42:42;101619.97;;;9.25;63.98
5812;BME280;2932;52.400;9.558;2023-02-16T04:45:08;101620.16;;;9.29;63.57
5812;BME280;2932;52.400;9.558;2023-02-16T04:47:34;101613.69;;;9.11;64.05
5812;BME280;2932;52.400;9.558;2023-02-16T04:49:59;101611.31;;;8.82;64.87
5812;BME280;2932;52.400;9.558;2023-02-16T04:52:25;101610.84;;;9.02;64.99
5812;BME280;2932;52.400;9.558;2023-02-16T04:55:00;101605.53;;;9.06;64.61
5812;BME280;2932;52.400;9.558;2023-02-16T04:57:33;101594.53;;;8.92;65.10
5812;BME280;2932;52.400;9.558;2023-02-16T05:00:15;101609.31;;;8.74;65.20
5812;BME280;2932;52.400;9.558;2023-02-16T05:05:57;101622.78;;;8.62;65.59
5812;BME280;2932;52.400;9.558;2023-02-16T05:08:28;101622.78;;;8.62;65.88
5812;BME280;2932;52.400;9.558;2023-02-16T05:11:03;101617.78;;;8.78;65.73
5812;BME280;2932;52.400;9.558;2023-02-16T05:13:56;101621.41;;;8.87;65.51
5812;BME280;2932;52.400;9.558;2023-02-16T05:19:32;101617.97;;;9.40;64.11
5812;BME280;2932;52.400;9.558;2023-02-16T05:22:05;101630.72;;;9.49;63.36
5812;BME280;2932;52.400;9.558;2023-02-16T05:24:48;101629.47;;;9.55;63.01
5812;BME280;2932;52.400;9.558;2023-02-16T05:27:24;101624.34;;;9.71;62.65
5812;BME280;2932;52.400;9.558;2023-02-16T05:30:01;101622.53;;;9.89;62.17
5812;BME280;2932;52.400;9.558;2023-02-16T05:32:35;101623.38;;;9.98;61.74
5812;BME280;2932;52.400;9.558;2023-02-16T05:35:08;101619.19;;;10.09;61.72
5812;BME280;2932;52.400;9.558;2023-02-16T05:37:56;101625.91;;;9.86;61.77
5812;BME280;2932;52.400;9.558;2023-02-16T05:40:30;101624.91;;;9.82;61.60
5812;BME280;2932;52.400;9.558;2023-02-16T05:43:06;101624.91;;;9.82;62.17
5812;BME280;2932;52.400;9.558;2023-02-16T05:45:51;101629.25;;;10.05;61.64
5812;BME280;2932;52.400;9.558;2023-02-16T05:48:28;101632.50;;;9.98;61.11
5812;BME280;2932;52.400;9.558;2023-02-16T05:51:01;101628.09;;;9.97;61.07
5812;BME280;2932;52.400;9.558;2023-02-16T05:53:30;101636.84;;;10.22;60.33
5812;BME280;2932;52.400;9.558;2023-02-16T05:56:07;101629.72;;;9.98;60.66
5812;BME280;2932;52.400;9.558;2023-02-16T05:58:50;101629.22;;;9.96;60.85
5812;BME280;2932;52.400;9.558;2023-02-16T06:01:43;101630.78;;;9.58;61.47
5812;BME280;2932;52.400;9.558;2023-02-16T06:04:45;101634.41;;;9.67;61.57
5812;BME280;2932;52.400;9.558;2023-02-16T06:07:25;101642.31;;;9.82;61.06
5812;BME280;2932;52.400;9.558;2023-02-16T06:12:48;101626.75;;;9.19;62.91
5812;BME280;2932;52.400;9.558;2023-02-16T06:15:42;101620.44;;;9.19;63.23
5812;BME280;2932;52.400;9.558;2023-02-16T06:18:49;101619.78;;;8.86;63.99
5812;BME280;2932;52.400;9.558;2023-02-16T06:21:32;101626.28;;;9.03;63.81
5812;BME280;2932;52.400;9.558;2023-02-16T06:33:28;101639.91;;;8.04;66.80
5812;BME280;2932;52.400;9.558;2023-02-16T06:36:17;101634.50;;;7.99;66.97
5812;BME280;2932;52.400;9.558;2023-02-16T06:42:10;101636.25;;;8.22;66.24
5812;BME280;2932;52.400;9.558;2023-02-16T06:45:25;101636.19;;;8.55;65.58
5812;BME280;2932;52.400;9.558;2023-02-16T07:13:21;101649.59;;;10.09;61.06
5812;BME280;2932;52.400;9.558;2023-02-16T08:10:03;101657.28;;;9.59;62.20
5812;BME280;2932;52.400;9.558;2023-02-16T08:13:27;101650.44;;;9.56;62.15
5812;BME280;2932;52.400;9.558;2023-02-16T08:20:12;101658.09;;;10.13;61.02
5812;BME280;2932;52.400;9.558;2023-02-16T08:52:31;101610.44;;;10.55;59.27
5812;BME280;2932;52.400;9.558;2023-02-16T08:58:51;101635.44;;;11.07;59.01
5812;BME280;2932;52.400;9.558;2023-02-16T09:10:02;101628.72;;;10.82;59.52
5812;BME280;2932;52.400;9.558;2023-02-16T09:26:24;101637.88;;;10.91;59.17
5812;BME280;2932;52.400;9.558;2023-02-16T09:28:51;101639.88;;;11.17;58.84
5812;BME280;2932;52.400;9.558;2023-02-16T09:31:38;101640.00;;;11.38;58.28
5812;BME280;2932;52.400;9.558;2023-02-16T09:34:27;101643.88;;;10.85;59.50
5812;BME280;2932;52.400;9.558;2023-02-16T09:36:54;101636.97;;;10.56;60.15
5812;BME280;2932;52.400;9.558;2023-02-16T09:39:27;101648.09;;;10.74;59.92
5812;BME280;2932;52.400;9.558;2023-02-16T10:12:55;101643.59;;;11.38;58.47
5812;BME280;2932;52.400;9.558;2023-02-16T10:16:10;101640.34;;;11.19;59.02
5812;BME280;2932;52.400;9.558;2023-02-16T10:29:02;101649.47;;;11.54;58.34
5812;BME280;2932;52.400;9.558;2023-02-16T10:44:50;101651.88;;;11.73;59.13
5812;BME280;2932;52.400;9.558;2023-02-16T10:47:42;101658.16;;;12.16;58.58
5812;BME280;2932;52.400;9.558;2023-02-16T10:53:09;101658.59;;;12.35;58.58
5812;BME280;2932;52.400;9.558;2023-02-16T10:55:37;101658.09;;;12.33;58.36
5812;BME280;2932;52.400;9.558;2023-02-16T10:58:03;101656.28;;;11.82;58.69
5812;BME280;2932;52.400;9.558;2023-02-16T11:01:12;101656.00;;;12.30;58.29
5812;BME280;2932;52.400;9.558;2023-02-16T11:03:50;101656.97;;;12.34;58.27
5812;BME280;2932;52.400;9.558;2023-02-16T11:06:22;101660.63;;;12.09;58.15
5812;BME280;2932;52.400;9.558;2023-02-16T11:08:52;101649.91;;;11.73;58.81
5812;BME280;2932;52.400;9.558;2023-02-16T11:11:20;101652.34;;;11.75;58.52
5812;BME280;2932;52.400;9.558;2023-02-16T11:13:48;101647.06;;;12.16;58.00
5812;BME280;2932;52.400;9.558;2023-02-16T11:16:19;101646.22;;;12.24;57.70
5812;BME280;2932;52.400;9.558;2023-02-16T11:18:54;101640.66;;;11.78;57.83
5812;BME280;2932;52.400;9.558;2023-02-16T11:21:41;101642.25;;;11.61;59.16
5812;BME280;2932;52.400;9.558;2023-02-16T11:24:09;101647.47;;;11.63;59.22
5812;BME280;2932;52.400;9.558;2023-02-16T11:26:36;101641.78;;;11.77;58.38
5812;BME280;2932;52.400;9.558;2023-02-16T11:29:18;101628.28;;;11.41;59.52
5812;BME280;2932;52.400;9.558;2023-02-16T11:31:44;101634.91;;;11.74;58.66
5812;BME280;2932;52.400;9.558;2023-02-16T11:36:48;101631.00;;;11.66;58.88
5812;BME280;2932;52.400;9.558;2023-02-16T11:41:55;101617.97;;;11.67;58.76
5812;BME280;2932;52.400;9.558;2023-02-16T11:46:49;101627.56;;;11.69;58.77
5812;BME280;2932;52.400;9.558;2023-02-16T11:49:20;101624.34;;;11.59;58.58
5812;BME280;2932;52.400;9.558;2023-02-16T11:51:46;101621.59;;;11.50;58.89
5812;BME280;2932;52.400;9.558;2023-02-16T11:54:16;101632.63;;;11.67;58.50
5812;BME280;2932;52.400;9.558;2023-02-16T11:56:42;101639.34;;;12.30;57.90
5812;BME280;2932;52.400;9.558;2023-02-16T11:59:17;101632.81;;;12.35;57.68
5812;BME280;2932;52.400;9.558;2023-02-16T12:04:58;101617.56;;;13.21;55.33
5812;BME280;2932;52.400;9.558;2023-02-16T12:13:26;101617.38;;;14.04;53.68
5812;BME280;2932;52.400;9.558;2023-02-16T12:16:19;101612.34;;;14.43;53.08
5812;BME280;2932;52.400;9.558;2023-02-16T12:21:49;101607.19;;;13.63;54.86
5812;BME280;2932;52.400;9.558;2023-02-16T12:27:30;101593.97;;;13.06;56.58
5812;BME280;2932;52.400;9.558;2023-02-16T12:33:36;101592.00;;;14.18;54.07
5812;BME280;2932;52.400;9.558;2023-02-16T12:44:19;101581.94;;;14.62;53.19
5812;BME280;2932;52.400;9.558;2023-02-16T12:46:56;101590.00;;;14.91;52.76
5812;BME280;2932;52.400;9.558;2023-02-16T12:49:27;101581.19;;;14.89;52.45
5812;BME280;2932;52.400;9.558;2023-02-16T12:54:54;101571.94;;;13.88;54.75
5812;BME280;2932;52.400;9.558;2023-02-16T12:57:23;101569.69;;;13.81;55.38
5812;BME280;2932;52.400;9.558;2023-02-16T12:59:57;101567.91;;;13.19;56.18
5812;BME280;2932;52.400;9.558;2023-02-16T13:05:08;101569.66;;;13.57;56.26
5812;BME280;2932;52.400;9.558;2023-02-16T13:07:40;101573.91;;;13.00;57.58
5812;BME280;2932;52.400;9.558;2023-02-16T13:13:02;101563.41;;;13.06;57.63
5812;BME280;2932;52.400;9.558;2023-02-16T13:18:03;101566.09;;;13.81;55.71
5812;BME280;2932;52.400;9.558;2023-02-16T13:20:29;101561.47;;;13.40;56.31
5812;BME280;2932;52.400;9.558;2023-02-16T13:31:31;101540.34;;;13.72;55.99
5812;BME280;2932;52.400;9.558;2023-02-16T13:44:58;101533.03;;;13.67;55.58
5812;BME280;2932;52.400;9.558;2023-02-16T13:47:28;101526.88;;;13.49;56.39
5812;BME280;2932;52.400;9.558;2023-02-16T13:49:57;101525.72;;;13.50;56.52
5812;BME280;2932;52.400;9.558;2023-02-16T13:52:28;101525.97;;;13.57;56.50
5812;BME280;2932;52.400;9.558;2023-02-16T13:54:56;101514.41;;;13.22;57.53
5812;BME280;2932;52.400;9.558;2023-02-16T14:00:37;101497.13;;;13.50;57.08
5812;BME280;2932;52.400;9.558;2023-02-16T14:18:42;101469.97;;;12.81;59.63
5812;BME280;2932;52.400;9.558;2023-02-16T14:23:55;101471.59;;;12.82;59.50
5812;BME280;2932;52.400;9.558;2023-02-16T14:26:21;101476.06;;;12.95;59.80
5812;BME280;2932;52.400;9.558;2023-02-16T14:29:07;101466.50;;;12.72;60.09
5812;BME280;2932;52.400;9.558;2023-02-16T14:31:50;101462.84;;;13.13;59.80
5812;BME280;2932;52.400;9.558;2023-02-16T14:34:28;101465.56;;;13.00;60.03
5812;BME280;2932;52.400;9.558;2023-02-16T14:39:42;101467.34;;;12.84;60.31
5812;BME280;2932;52.400;9.558;2023-02-16T14:42:13;101471.50;;;12.78;60.46
5812;BME280;2932;52.400;9.558;2023-02-16T14:50:10;101473.34;;;13.07;60.22
5812;BME280;2932;52.400;9.558;2023-02-16T14:52:51;101480.94;;;13.19;60.15
5812;BME280;2932;52.400;9.558;2023-02-16T14:58:29;101475.38;;;12.65;60.91
5812;BME280;2932;52.400;9.558;2023-02-16T15:01:17;101478.63;;;12.67;61.12
5812;BME280;2932;52.400;9.558;2023-02-16T15:08:51;101487.41;;;12.69;61.30
5812;BME280;2932;52.400;9.558;2023-02-16T15:12:03;101491.16;;;12.73;61.15
5812;BME280;2932;52.400;9.558;2023-02-16T15:14:58;101489.66;;;12.76;61.08
5812;BME280;2932;52.400;9.558;2023-02-16T15:20:39;101488.69;;;12.92;61.17
5812;BME280;2932;52.400;9.558;2023-02-16T15:23:16;101481.31;;;12.55;61.78
5812;BME280;2932;52.400;9.558;2023-02-16T15:25:41;101485.25;;;12.54;62.22
5812;BME280;2932;52.400;9.558;2023-02-16T15:28:19;101478.47;;;12.63;61.99
5812;BME280;2932;52.400;9.558;2023-02-16T15:30:54;101484.28;;;12.91;61.53
5812;BME280;2932;52.400;9.558;2023-02-16T15:36:03;101474.53;;;12.44;62.70
5812;BME280;2932;52.400;9.558;2023-02-16T15:38:37;101474.28;;;12.37;63.32
5812;BME280;2932;52.400;9.558;2023-02-16T15:41:13;101477.25;;;12.31;62.97
5812;BME280;2932;52.400;9.558;2023-02-16T15:46:14;101484.09;;;12.55;62.60
5812;BME280;2932;52.400;9.558;2023-02-16T15:48:41;101478.53;;;12.34;62.70
5812;BME280;2932;52.400;9.558;2023-02-16T15:53:52;101478.00;;;12.41;63.04
5812;BME280;2932;52.400;9.558;2023-02-16T15:56:29;101473.25;;;12.41;62.91
5812;BME280;2932;52.400;9.558;2023-02-16T15:59:00;101475.16;;;12.28;63.60
5812;BME280;2932;52.400;9.558;2023-02-16T16:01:31;101478.25;;;12.27;63.38
5812;BME280;2932;52.400;9.558;2023-02-16T16:04:16;101472.84;;;12.30;63.80
5812;BME280;2932;52.400;9.558;2023-02-16T16:06:43;101473.59;;;12.40;63.84
5812;BME280;2932;52.400;9.558;2023-02-16T16:09:31;101468.31;;;12.26;63.98
5812;BME280;2932;52.400;9.558;2023-02-16T16:11:59;101476.88;;;12.12;63.96
5812;BME280;2932;52.400;9.558;2023-02-16T16:14:26;101483.09;;;12.09;64.59
5812;BME280;2932;52.400;9.558;2023-02-16T16:16:53;101482.03;;;12.22;64.29
5812;BME280;2932;52.400;9.558;2023-02-16T16:19:32;101475.69;;;11.92;64.83
5812;BME280;2932;52.400;9.558;2023-02-16T16:21:58;101477.75;;;12.04;64.88
5812;BME280;2932;52.400;9.558;2023-02-16T16:24:37;101469.84;;;12.15;64.42
5812;BME280;2932;52.400;9.558;2023-02-16T16:27:06;101478.34;;;12.10;64.74
5812;BME280;2932;52.400;9.558;2023-02-16T16:29:38;101478.97;;;12.15;64.74
5812;BME280;2932;52.400;9.558;2023-02-16T16:32:06;101486.41;;;12.32;64.35
5812;BME280;2932;52.400;9.558;2023-02-16T16:34:37;101480.91;;;12.23;64.15
5812;BME280;2932;52.400;9.558;2023-02-16T16:37:04;101479.13;;;12.40;63.96
5812;BME280;2932;52.400;9.558;2023-02-16T16:39:36;101486.06;;;12.04;64.23
5812;BME280;2932;52.400;9.558;2023-02-16T16:44:41;101475.63;;;12.01;64.98
5812;BME280;2932;52.400;9.558;2023-02-16T16:54:54;101479.94;;;12.19;64.75
5812;BME280;2932;52.400;9.558;2023-02-16T16:57:19;101471.22;;;12.00;64.96
5812;BME280;2932;52.400;9.558;2023-02-16T16:59:45;101471.94;;;12.18;65.04
5812;BME280;2932;52.400;9.558;2023-02-16T17:02:10;101472.66;;;12.35;64.86
5812;BME280;2932;52.400;9.558;2023-02-16T17:04:35;101474.53;;;12.23;64.77
5812;BME280;2932;52.400;9.558;2023-02-16T17:07:01;101468.25;;;12.55;64.36
5812;BME280;2932;52.400;9.558;2023-02-16T17:09:26;101466.84;;;12.28;64.77
5812;BME280;2932;52.400;9.558;2023-02-16T17:11:51;101472.47;;;12.11;65.50
5812;BME280;2932;52.400;9.558;2023-02-16T17:14:17;101470.00;;;12.18;65.67
5812;BME280;2932;52.400;9.558;2023-02-16T17:16:46;101467.13;;;12.35;65.57
5812;BME280;2932;52.400;9.558;2023-02-16T17:19:17;101466.53;;;12.21;65.79
5812;BME280;2932;52.400;9.558;2023-02-16T17:21:44;101470.94;;;12.22;66.36
5812;BME280;2932;52.400;9.558;2023-02-16T17:24:09;101466.78;;;12.37;65.77
5812;BME280;2932;52.400;9.558;2023-02-16T17:26:35;101464.53;;;12.30;66.24
5812;BME280;2932;52.400;9.558;2023-02-16T17:29:02;101458.50;;;12.49;65.74
5812;BME280;2932;52.400;9.558;2023-02-16T17:31:27;101464.25;;;12.23;66.60
5812;BME280;2932;52.400;9.558;2023-02-16T17:33:52;101452.91;;;12.37;66.55
5812;BME280;2932;52.400;9.558;2023-02-16T17:36:18;101453.75;;;12.50;66.43
5812;BME280;2932;52.400;9.558;2023-02-16T17:38:46;101448.88;;;12.47;66.45
5812;BME280;2932;52.400;9.558;2023-02-16T17:41:19;101440.09;;;12.24;66.85
5812;BME280;2932;52.400;9.558;2023-02-16T17:43:45;101437.94;;;12.29;67.43
5812;BME280;2932;52.400;9.558;2023-02-16T17:46:11;101432.25;;;12.26;67.52
5812;BME280;2932;52.400;9.558;2023-02-16T17:48:37;101430.91;;;12.32;67.94
5812;BME280;2932;52.400;9.558;2023-02-16T17:51:03;101420.13;;;12.30;67.83
5812;BME280;2932;52.400;9.558;2023-02-16T17:53:29;101438.47;;;12.23;68.32
5812;BME280;2932;52.400;9.558;2023-02-16T17:55:56;101431.84;;;12.36;67.75
5812;BME280;2932;52.400;9.558;2023-02-16T17:58:22;101427.56;;;12.59;67.93
5812;BME280;2932;52.400;9.558;2023-02-16T18:00:48;101426.53;;;12.64;67.64
5812;BME280;2932;52.400;9.558;2023-02-16T18:03:14;101419.22;;;12.59;67.15
5812;BME280;2932;52.400;9.558;2023-02-16T18:05:39;101419.78;;;12.53;66.69
5812;BME280;2932;52.400;9.558;2023-02-16T18:08:05;101410.19;;;12.29;67.16
5812;BME280;2932;52.400;9.558;2023-02-16T18:10:40;101426.75;;;12.59;66.12
5812;BME280;2932;52.400;9.558;2023-02-16T18:13:06;101421.22;;;12.38;66.36
5812;BME280;2932;52.400;9.558;2023-02-16T18:15:32;101424.19;;;12.33;66.50
5812;BME280;2932;52.400;9.558;2023-02-16T18:17:58;101419.91;;;12.15;67.18
5812;BME280;2932;52.400;9.558;2023-02-16T18:20:24;101416.88;;;12.28;67.04
5812;BME280;2932;52.400;9.558;2023-02-16T18:22:50;101429.13;;;12.48;66.81
5812;BME280;2932;52.400;9.558;2023-02-16T18:25:16;101427.28;;;12.52;66.09
5812;BME280;2932;52.400;9.558;2023-02-16T18:27:41;101416.88;;;12.49;66.12
5812;BME280;2932;52.400;9.558;2023-02-16T18:30:07;101415.09;;;12.03;67.38
5812;BME280;2932;52.400;9.558;2023-02-16T18:32:34;101418.44;;;12.17;67.62
5812;BME280;2932;52.400;9.558;2023-02-16T18:34:59;101419.47;;;12.33;67.37
5812;BME280;2932;52.400;9.558;2023-02-16T18:37:24;101421.66;;;12.40;66.93
5812;BME280;2932;52.400;9.558;2023-02-16T18:39:50;101410.03;;;12.47;66.78
5812;BME280;2932;52.400;9.558;2023-02-16T18:42:15;101418.81;;;12.49;66.59
5812;BME280;2932;52.400;9.558;2023-02-16T18:44:41;101410.03;;;12.05;68.18
5812;BME280;2932;52.400;9.558;2023-02-16T18:47:07;101399.88;;;11.88;68.83
5812;BME280;2932;52.400;9.558;2023-02-16T18:49:33;101404.41;;;12.14;68.18
5812;BME280;2932;52.400;9.558;2023-02-16T18:51:58;101406.59;;;12.29;68.00
5812;BME280;2932;52.400;9.558;2023-02-16T18:54:23;101410.56;;;12.40;67.96
5812;BME280;2932;52.400;9.558;2023-02-16T18:56:49;101388.09;;;12.54;67.14
5812;BME280;2932;52.400;9.558;2023-02-16T18:59:14;101391.81;;;12.58;67.12
5812;BME280;2932;52.400;9.558;2023-02-16T19:01:39;101391.88;;;12.82;66.68
5812;BME280;2932;52.400;9.558;2023-02-16T19:04:05;101392.63;;;12.91;65.78
5812;BME280;2932;52.400;9.558;2023-02-16T19:06:31;101393.88;;;13.27;64.90
5812;BME280;2932;52.400;9.558;2023-02-16T19:08:57;101386.72;;;12.93;65.44
5812;BME280;2932;52.400;9.558;2023-02-16T19:11:24;101389.38;;;12.89;65.56
5812;BME280;2932;52.400;9.558;2023-02-16T19:13:52;101391.94;;;12.94;65.69
5812;BME280;2932;52.400;9.558;2023-02-16T19:16:18;101388.91;;;12.87;65.55
5812;BME280;2932;52.400;9.558;2023-02-16T19:18:44;101384.94;;;12.76;66.10
5812;BME280;2932;52.400;9.558;2023-02-16T19:21:10;101384.75;;;12.93;65.90
5812;BME280;2932;52.400;9.558;2023-02-16T19:23:37;101382.69;;;13.02;65.40
5812;BME280;2932;52.400;9.558;2023-02-16T19:26:08;101380.50;;;13.08;65.23
5812;BME280;2932;52.400;9.558;2023-02-16T19:28:35;101376.94;;;13.20;65.08
5812;BME280;2932;52.400;9.558;2023-02-16T19:31:03;101377.59;;;13.05;65.16
5812;BME280;2932;52.400;9.558;2023-02-16T19:33:29;101374.97;;;13.08;65.15
5812;BME280;2932;52.400;9.558;2023-02-16T19:36:02;101372.06;;;13.05;65.24
5812;BME280;2932;52.400;9.558;2023-02-16T19:38:28;101369.38;;;12.96;65.70
5812;BME280;2932;52.400;9.558;2023-02-16T19:40:54;101366.00;;;12.90;65.93
5812;BME280;2932;52.400;9.558;2023-02-16T19:43:19;101364.16;;;12.94;65.88
5812;BME280;2932;52.400;9.558;2023-02-16T19:45:45;101366.69;;;12.87;65.94
5812;BME280;2932;52.400;9.558;2023-02-16T19:48:10;101368.38;;;12.67;66.29
5812;BME280;2932;52.400;9.558;2023-02-16T19:50:36;101358.63;;;12.61;66.60
5812;BME280;2932;52.400;9.558;2023-02-16T19:53:01;101355.78;;;12.37;67.40